createdAt,value
2022-10-02T00:01:53.194Z,9.01
2022-10-02T00:04:27.753Z,9.09
2022-10-02T00:06:59.545Z,9.10
2022-10-02T00:09:30.603Z,8.97
2022-10-02T00:11:59.412Z,9.02
2022-10-02T00:14:30.122Z,9.00
2022-10-02T00:16:59.851Z,8.92
2022-10-02T00:19:26.961Z,9.00
2022-10-02T00:22:21.564Z,8.97
2022-10-02T00:25:01.131Z,9.04
2022-10-02T00:27:43.775Z,9.04
2022-10-02T00:30:12.277Z,8.90
2022-10-02T00:32:49.378Z,8.92
2022-10-02T00:35:35.555Z,8.91
2022-10-02T00:38:17.616Z,8.96
2022-10-02T00:41:15.311Z,8.87
2022-10-02T00:44:06.893Z,8.83
2022-10-02T00:46:43.479Z,8.81
2022-10-02T00:49:29.965Z,8.87
2022-10-02T00:52:04.795Z,8.83
2022-10-02T00:54:56.205Z,8.90
2022-10-02T00:57:42.096Z,8.80
2022-10-02T01:00:11.940Z,8.91
2022-10-02T01:02:51.694Z,8.86
2022-10-02T01:05:19.404Z,8.93
2022-10-02T01:07:50.220Z,8.99
2022-10-02T01:10:16.938Z,9.06
2022-10-02T01:12:43.764Z,9.06
2022-10-02T01:15:21.073Z,9.07
2022-10-02T01:17:50.390Z,9.13
2022-10-02T01:20:31.167Z,9.17
2022-10-02T01:23:19.369Z,9.22
2022-10-02T01:25:46.410Z,9.37
2022-10-02T01:28:13.331Z,9.25
2022-10-02T01:30:42.132Z,9.23
2022-10-02T01:33:10.066Z,9.22
2022-10-02T01:35:38.346Z,9.32
2022-10-02T01:38:11.952Z,9.39
2022-10-02T01:40:40.340Z,9.32
2022-10-02T01:43:19.762Z,9.40
2022-10-02T01:45:52.991Z,9.39
2022-10-02T01:48:22.378Z,9.48
2022-10-02T01:51:20.647Z,9.47
2022-10-02T01:54:19.877Z,9.51
2022-10-02T01:57:14.805Z,9.54
2022-10-02T01:59:59.848Z,9.52
2022-10-02T02:02:43.547Z,9.48
2022-10-02T02:05:35.949Z,9.60
2022-10-02T02:08:10.144Z,9.54
2022-10-02T02:10:46.719Z,9.44
2022-10-02T02:13:23.497Z,9.49
2022-10-02T02:16:00.244Z,9.36
2022-10-02T02:18:43.525Z,9.29
2022-10-02T02:21:21.963Z,9.23
2022-10-02T02:23:50.196Z,9.16
2022-10-02T02:26:18.988Z,9.16
2022-10-02T02:28:50.616Z,9.12
2022-10-02T02:31:21.489Z,9.09
2022-10-02T02:33:53.122Z,9.07
2022-10-02T02:36:23.416Z,9.12
2022-10-02T02:38:53.612Z,9.15
2022-10-02T02:41:26.045Z,8.99
2022-10-02T02:43:57.934Z,9.03
2022-10-02T02:46:34.496Z,8.99
2022-10-02T02:49:06.689Z,8.95
2022-10-02T02:51:37.776Z,8.90
2022-10-02T02:54:15.951Z,9.04
2022-10-02T02:56:44.162Z,9.01
2022-10-02T02:59:13.350Z,8.81
2022-10-02T03:01:40.932Z,8.86
2022-10-02T03:04:11.644Z,8.84
2022-10-02T03:06:42.318Z,8.79
2022-10-02T03:09:18.426Z,8.77
2022-10-02T03:11:45.079Z,8.89
2022-10-02T03:14:25.639Z,8.82
2022-10-02T03:17:22.228Z,8.80
2022-10-02T03:19:55.135Z,8.83
2022-10-02T03:22:35.685Z,8.84
2022-10-02T03:25:26.366Z,8.77
2022-10-02T03:28:03.499Z,8.81
2022-10-02T03:30:31.731Z,8.75
2022-10-02T03:33:01.137Z,8.65
2022-10-02T03:35:29.066Z,8.68
2022-10-02T03:37:59.752Z,8.83
2022-10-02T03:40:27.541Z,8.82
2022-10-02T03:42:58.332Z,8.70
2022-10-02T03:45:49.532Z,8.66
2022-10-02T03:48:12.160Z,8.64
2022-10-02T03:50:38.871Z,8.69
2022-10-02T03:53:16.970Z,8.66
2022-10-02T03:55:49.664Z,8.76
2022-10-02T03:58:36.528Z,8.85
2022-10-02T04:01:13.933Z,8.92
2022-10-02T04:03:51.414Z,8.77
2022-10-02T04:14:22.983Z,8.79
2022-10-02T04:17:02.325Z,8.68
2022-10-02T04:19:39.988Z,8.72
2022-10-02T04:22:33.739Z,8.77
2022-10-02T04:25:32.070Z,8.73
2022-10-02T04:28:05.606Z,8.75
2022-10-02T04:30:32.383Z,8.71
2022-10-02T04:33:13.751Z,8.59
2022-10-02T04:36:03.359Z,8.51
2022-10-02T04:38:51.078Z,8.61
2022-10-02T04:41:30.595Z,8.59
2022-10-02T04:44:06.024Z,8.68
2022-10-02T04:46:36.124Z,8.69
2022-10-02T04:49:23.590Z,8.60
2022-10-02T04:51:58.912Z,8.67
2022-10-02T04:54:31.949Z,8.70
2022-10-02T04:57:20.247Z,8.71
2022-10-02T05:00:15.420Z,8.78
2022-10-02T05:03:01.024Z,8.66
2022-10-02T05:05:54.330Z,8.74
2022-10-02T05:08:27.030Z,8.73
2022-10-02T05:11:46.354Z,8.90
2022-10-02T05:14:50.849Z,8.96
2022-10-02T05:17:28.022Z,8.88
2022-10-02T05:20:07.719Z,8.79
2022-10-02T05:26:40.411Z,8.93
2022-10-02T05:29:42.397Z,8.79
2022-10-02T05:32:44.318Z,8.88
2022-10-02T05:35:32.077Z,8.99
2022-10-02T05:38:26.681Z,9.06
2022-10-02T05:41:28.286Z,8.95
2022-10-02T05:44:11.833Z,9.05
2022-10-02T05:47:32.902Z,9.00
2022-10-02T05:50:27.635Z,9.15
2022-10-02T05:52:59.799Z,9.23
2022-10-02T05:55:34.543Z,9.25
2022-10-02T05:58:09.887Z,9.28
2022-10-02T06:00:43.831Z,9.29
2022-10-02T06:03:24.062Z,9.31
2022-10-02T06:06:02.394Z,9.45
2022-10-02T06:08:36.867Z,9.51
2022-10-02T06:11:20.266Z,9.43
2022-10-02T06:13:50.883Z,9.46
2022-10-02T06:16:29.832Z,9.60
2022-10-02T06:19:04.675Z,9.52
2022-10-02T06:21:36.548Z,9.52
2022-10-02T06:24:07.725Z,9.68
2022-10-02T06:26:40.180Z,9.67
2022-10-02T06:29:18.350Z,9.76
2022-10-02T06:31:49.730Z,9.84
2022-10-02T06:34:16.586Z,9.84
2022-10-02T06:37:01.310Z,9.82
2022-10-02T06:39:45.603Z,9.92
2022-10-02T06:42:52.890Z,9.90
2022-10-02T06:45:32.173Z,9.97
2022-10-02T06:48:06.749Z,10.04
2022-10-02T06:50:51.786Z,10.00
2022-10-02T06:53:42.928Z,10.08
2022-10-02T06:56:38.313Z,10.17
2022-10-02T06:59:28.257Z,10.21
2022-10-02T07:02:10.370Z,10.29
2022-10-02T07:04:42.389Z,10.39
2022-10-02T07:07:32.697Z,10.39
2022-10-02T07:10:26.320Z,10.49
2022-10-02T07:13:26.138Z,10.54
2022-10-02T07:16:07.108Z,10.61
2022-10-02T07:18:49.318Z,10.65
2022-10-02T07:24:38.015Z,10.85
2022-10-02T07:27:26.028Z,10.70
2022-10-02T07:30:10.927Z,10.79
2022-10-02T07:33:08.491Z,10.92
2022-10-02T07:35:51.967Z,10.78
2022-10-02T07:38:46.908Z,10.93
2022-10-02T07:41:52.645Z,10.98
2022-10-02T07:44:51.880Z,11.01
2022-10-02T07:47:34.047Z,11.05
2022-10-02T07:50:11.430Z,11.08
2022-10-02T07:52:51.860Z,11.20
2022-10-02T07:55:26.294Z,11.24
2022-10-02T07:57:59.866Z,11.33
2022-10-02T08:00:31.820Z,11.28
2022-10-02T08:03:06.650Z,11.25
2022-10-02T08:06:05.113Z,11.35
2022-10-02T08:09:03.516Z,11.52
2022-10-02T08:11:40.569Z,11.65
2022-10-02T08:14:20.186Z,11.60
2022-10-02T08:16:49.836Z,11.63
2022-10-02T08:19:30.027Z,11.70
2022-10-02T08:22:06.200Z,11.72
2022-10-02T08:24:38.439Z,11.82
2022-10-02T08:27:45.731Z,11.81
2022-10-02T08:30:15.924Z,11.86
2022-10-02T08:32:44.300Z,11.75
2022-10-02T08:35:19.808Z,11.82
2022-10-02T08:38:06.928Z,11.78
2022-10-02T08:41:05.108Z,11.76
2022-10-02T08:43:50.933Z,11.76
2022-10-02T08:46:36.322Z,11.69
2022-10-02T08:49:16.902Z,11.77
2022-10-02T08:52:02.849Z,11.92
2022-10-02T08:54:50.608Z,11.90
2022-10-02T08:58:11.210Z,11.87
2022-10-02T09:01:05.399Z,11.97
2022-10-02T09:03:58.165Z,11.92
2022-10-02T09:07:00.744Z,11.95
2022-10-02T09:10:00.727Z,11.97
2022-10-02T09:12:58.600Z,11.95
2022-10-02T09:15:48.213Z,12.09
2022-10-02T09:18:39.565Z,11.93
2022-10-02T09:21:34.902Z,12.02
2022-10-02T09:24:30.147Z,12.10
2022-10-02T09:27:39.682Z,12.06
2022-10-02T09:30:12.350Z,12.14
2022-10-02T09:33:04.028Z,12.33
2022-10-02T09:36:28.872Z,12.40
2022-10-02T09:39:46.533Z,12.39
2022-10-02T09:42:23.437Z,12.52
2022-10-02T09:45:27.017Z,12.73
2022-10-02T09:48:15.714Z,12.90
2022-10-02T09:51:16.719Z,13.14
2022-10-02T09:53:58.102Z,13.37
2022-10-02T09:57:07.189Z,13.46
2022-10-02T09:59:58.873Z,13.71
2022-10-02T10:02:34.901Z,13.78
2022-10-02T10:05:28.107Z,13.87
2022-10-02T10:08:34.600Z,13.68
2022-10-02T10:11:35.910Z,13.24
2022-10-02T10:14:39.729Z,13.00
2022-10-02T10:17:26.655Z,13.04
2022-10-02T10:20:16.380Z,13.07
2022-10-02T10:23:06.794Z,12.48
2022-10-02T10:26:17.288Z,11.74
2022-10-02T10:29:14.357Z,10.95
2022-10-02T10:31:53.652Z,10.66
2022-10-02T10:34:36.778Z,10.77
2022-10-02T10:37:24.528Z,10.84
2022-10-02T10:40:30.227Z,10.92
2022-10-02T10:43:19.128Z,10.89
2022-10-02T10:46:24.601Z,11.06
2022-10-02T10:49:13.867Z,11.15
2022-10-02T10:52:03.078Z,11.37
2022-10-02T10:54:59.252Z,11.44
2022-10-02T10:57:52.102Z,11.62
2022-10-02T11:00:25.367Z,11.86
2022-10-02T11:03:39.959Z,11.89
2022-10-02T11:06:47.831Z,11.82
2022-10-02T11:12:40.790Z,11.96
2022-10-02T11:15:39.347Z,12.00
2022-10-02T11:18:40.494Z,11.84
2022-10-02T11:21:42.749Z,12.07
2022-10-02T11:24:40.733Z,12.17
2022-10-02T11:27:16.955Z,12.32
2022-10-02T11:30:05.776Z,12.46
2022-10-02T11:32:46.059Z,12.56
2022-10-02T11:35:22.136Z,12.49
2022-10-02T11:38:04.371Z,12.38
2022-10-02T11:40:49.500Z,12.44
2022-10-02T11:43:23.071Z,12.42
2022-10-02T11:46:09.112Z,12.59
2022-10-02T11:49:06.867Z,12.71
2022-10-02T11:52:00.385Z,12.96
2022-10-02T11:54:27.987Z,13.00
2022-10-02T11:57:17.411Z,13.11
2022-10-02T12:00:14.985Z,13.25
2022-10-02T12:02:56.618Z,13.64
2022-10-02T12:05:45.821Z,13.82
2022-10-02T12:08:24.435Z,14.20
2022-10-02T12:10:59.478Z,14.20
2022-10-02T12:13:33.494Z,13.85
2022-10-02T12:16:35.714Z,14.06
2022-10-02T12:19:15.875Z,14.23
2022-10-02T12:22:29.500Z,14.26
2022-10-02T12:25:35.163Z,14.05
2022-10-02T12:28:26.777Z,13.89
2022-10-02T12:31:01.440Z,14.12
2022-10-02T12:34:14.441Z,14.21
2022-10-02T12:36:56.831Z,14.47
2022-10-02T12:39:40.330Z,14.42
2022-10-02T12:42:43.966Z,14.59
2022-10-02T12:45:48.821Z,14.55
2022-10-02T12:48:42.423Z,14.62
2022-10-02T12:51:29.162Z,14.68
2022-10-02T12:54:18.074Z,15.00
2022-10-02T12:57:38.116Z,15.16
2022-10-02T13:00:15.157Z,15.02
2022-10-02T13:03:05.750Z,15.18
2022-10-02T13:05:55.582Z,15.12
2022-10-02T13:08:35.483Z,15.28
2022-10-02T13:11:20.867Z,15.16
2022-10-02T13:14:05.571Z,15.22
2022-10-02T13:16:58.404Z,15.16
2022-10-02T13:19:56.750Z,15.04
2022-10-02T13:22:37.208Z,14.91
2022-10-02T13:25:34.551Z,15.11
2022-10-02T13:28:21.069Z,15.14
2022-10-02T13:31:15.298Z,15.11
2022-10-02T13:34:19.843Z,15.50
2022-10-02T13:36:56.272Z,15.67
2022-10-02T13:39:36.631Z,15.84
2022-10-02T13:42:37.255Z,15.86
2022-10-02T13:45:19.327Z,16.06
2022-10-02T13:48:27.788Z,16.22
2022-10-02T13:51:16.655Z,15.91
2022-10-02T13:54:15.023Z,15.76
2022-10-02T13:57:14.565Z,15.75
2022-10-02T14:00:02.850Z,16.04
2022-10-02T14:02:43.803Z,15.88
2022-10-02T14:05:46.768Z,16.08
2022-10-02T14:08:42.864Z,16.33
2022-10-02T14:12:05.620Z,16.17
2022-10-02T14:15:12.360Z,16.07
2022-10-02T14:18:01.554Z,16.13
2022-10-02T14:20:51.645Z,16.27
2022-10-02T14:23:52.398Z,16.13
2022-10-02T14:26:40.381Z,16.10
2022-10-02T14:29:27.353Z,15.95
2022-10-02T14:32:06.081Z,15.86
2022-10-02T14:34:59.164Z,15.87
2022-10-02T14:37:42.748Z,15.43
2022-10-02T14:40:14.850Z,15.96
2022-10-02T14:43:07.674Z,15.76
2022-10-02T14:45:57.207Z,15.68
2022-10-02T14:48:51.134Z,15.44
2022-10-02T14:51:47.443Z,15.18
2022-10-02T14:54:36.049Z,15.04
2022-10-02T14:57:19.159Z,15.14
2022-10-02T14:59:53.257Z,15.10
2022-10-02T15:02:37.902Z,15.18
2022-10-02T15:05:29.564Z,15.51
2022-10-02T15:07:56.620Z,16.00
2022-10-02T15:10:26.956Z,16.30
2022-10-02T15:13:26.843Z,15.71
2022-10-02T15:16:16.963Z,15.55
2022-10-02T15:18:50.709Z,16.15
2022-10-02T15:21:34.035Z,15.94
2022-10-02T15:24:26.094Z,15.99
2022-10-02T15:27:09.531Z,16.22
2022-10-02T15:29:57.253Z,16.71
2022-10-02T15:32:34.702Z,18.37
2022-10-02T15:35:36.437Z,19.18
2022-10-02T15:38:41.104Z,19.64
2022-10-02T15:41:32.146Z,19.14
2022-10-02T15:44:21.018Z,17.89
2022-10-02T15:47:17.726Z,17.83
2022-10-02T15:50:02.917Z,17.04
2022-10-02T15:52:40.845Z,16.61
2022-10-02T15:55:19.894Z,15.85
2022-10-02T15:58:04.714Z,15.28
2022-10-02T16:00:54.071Z,14.74
2022-10-02T16:03:24.478Z,14.55
2022-10-02T16:06:00.502Z,14.18
2022-10-02T16:08:31.655Z,14.17
2022-10-02T16:11:13.897Z,14.15
2022-10-02T16:14:06.067Z,14.15
2022-10-02T16:16:40.464Z,13.91
2022-10-02T16:19:13.511Z,13.92
2022-10-02T16:21:59.031Z,13.83
2022-10-02T16:24:44.698Z,13.58
2022-10-02T16:27:20.790Z,13.57
2022-10-02T16:30:08.383Z,13.58
2022-10-02T16:32:58.261Z,13.54
2022-10-02T16:35:45.044Z,13.41
2022-10-02T16:38:38.045Z,13.35
2022-10-02T16:41:15.380Z,13.23
2022-10-02T16:43:58.972Z,13.02
2022-10-02T16:46:39.556Z,13.05
2022-10-02T16:49:30.160Z,13.00
2022-10-02T16:52:41.593Z,12.78
2022-10-02T16:55:32.185Z,12.79
2022-10-02T16:58:26.422Z,12.75
2022-10-02T17:00:56.584Z,12.68
2022-10-02T17:03:44.231Z,12.58
2022-10-02T17:06:24.625Z,12.57
2022-10-02T17:09:01.747Z,12.33
2022-10-02T17:11:32.711Z,12.26
2022-10-02T17:14:20.206Z,12.26
2022-10-02T17:16:55.958Z,12.21
2022-10-02T17:19:52.924Z,12.09
2022-10-02T17:22:28.884Z,11.96
2022-10-02T17:25:14.906Z,11.93
2022-10-02T17:28:00.607Z,11.90
2022-10-02T17:30:30.313Z,11.79
2022-10-02T17:33:05.649Z,11.84
2022-10-02T17:35:34.445Z,11.69
2022-10-02T17:38:24.136Z,11.70
2022-10-02T17:41:20.549Z,11.65
2022-10-02T17:44:01.538Z,11.62
2022-10-02T17:46:34.280Z,11.53
2022-10-02T17:49:20.007Z,11.52
2022-10-02T17:52:47.921Z,11.58
2022-10-02T17:56:06.285Z,11.51
2022-10-02T17:59:10.306Z,11.42
2022-10-02T18:02:14.447Z,11.40
2022-10-02T18:04:53.818Z,11.33
2022-10-02T18:07:44.951Z,11.33
2022-10-02T18:10:33.397Z,11.27
2022-10-02T18:16:28.258Z,11.26
2022-10-02T18:19:04.143Z,11.15
2022-10-02T18:22:04.782Z,11.04
2022-10-02T18:25:03.512Z,11.10
2022-10-02T18:27:32.395Z,11.12
2022-10-02T18:30:20.528Z,11.06
2022-10-02T18:33:07.850Z,10.94
2022-10-02T18:36:31.047Z,10.90
2022-10-02T18:39:56.795Z,10.97
2022-10-02T18:43:14.822Z,11.06
2022-10-02T18:46:06.944Z,10.80
2022-10-02T18:48:47.142Z,10.87
2022-10-02T18:51:24.505Z,10.86
2022-10-02T18:53:58.698Z,10.77
2022-10-02T18:56:44.093Z,10.71
2022-10-02T18:59:28.948Z,10.77
2022-10-02T19:02:17.336Z,10.74
2022-10-02T19:05:06.653Z,10.66
2022-10-02T19:07:44.336Z,10.58
2022-10-02T19:10:27.521Z,10.47
2022-10-02T19:12:56.815Z,10.40
2022-10-02T19:23:32.949Z,10.42
2022-10-02T19:24:08.894Z,10.33
2022-10-02T19:26:51.221Z,10.18
2022-10-02T19:29:57.532Z,10.20
2022-10-02T19:32:41.489Z,10.16
2022-10-02T19:35:19.095Z,10.01
2022-10-02T19:37:49.235Z,9.99
2022-10-02T19:40:23.894Z,10.09
2022-10-02T19:43:04.554Z,10.07
2022-10-02T19:45:36.684Z,10.10
2022-10-02T19:48:09.438Z,10.05
2022-10-02T19:50:57.307Z,10.04
2022-10-02T19:53:36.059Z,10.07
2022-10-02T19:56:45.414Z,9.92
2022-10-02T19:59:12.316Z,9.90
2022-10-02T20:01:45.393Z,9.97
2022-10-02T20:04:21.702Z,9.97
2022-10-02T20:06:53.285Z,9.96
2022-10-02T20:09:51.778Z,9.97
2022-10-02T20:12:27.450Z,10.13
2022-10-02T20:15:44.674Z,10.15
2022-10-02T20:18:14.765Z,10.02
2022-10-02T20:20:44.174Z,10.07
2022-10-02T20:23:22.816Z,10.06
2022-10-02T20:25:53.343Z,10.02
2022-10-02T20:28:27.510Z,9.96
2022-10-02T20:31:07.541Z,10.02
2022-10-02T20:33:40.847Z,9.93
2022-10-02T20:36:19.638Z,9.87
2022-10-02T20:39:00.596Z,9.96
2022-10-02T20:42:03.110Z,9.95
2022-10-02T20:44:31.808Z,9.86
2022-10-02T20:47:35.754Z,10.05
2022-10-02T20:50:25.284Z,9.89
2022-10-02T20:53:14.104Z,9.84
2022-10-02T20:55:50.815Z,9.83
2022-10-02T20:58:40.446Z,9.79
2022-10-02T21:01:22.682Z,9.78
2022-10-02T21:04:20.088Z,9.82
2022-10-02T21:07:07.242Z,9.80
2022-10-02T21:09:40.372Z,9.82
2022-10-02T21:12:29.270Z,9.78
2022-10-02T21:15:16.726Z,9.78
2022-10-02T21:18:20.694Z,9.74
2022-10-02T21:21:08.887Z,9.91
2022-10-02T21:23:57.769Z,9.80
2022-10-02T21:26:47.452Z,9.81
2022-10-02T21:29:37.414Z,9.80
2022-10-02T21:32:28.324Z,9.64
2022-10-02T21:35:16.801Z,9.62
2022-10-02T21:38:01.252Z,9.65
2022-10-02T21:40:46.571Z,9.80
2022-10-02T21:43:47.652Z,9.67
2022-10-02T21:46:33.418Z,9.48
2022-10-02T21:49:33.228Z,9.54
2022-10-02T21:52:28.095Z,9.47
2022-10-02T21:54:58.216Z,9.56
2022-10-02T21:57:57.818Z,9.58
2022-10-02T22:00:28.640Z,9.50
2022-10-02T22:02:55.757Z,9.53
2022-10-02T22:05:47.335Z,9.51
2022-10-02T22:08:29.732Z,9.55
2022-10-02T22:11:06.277Z,9.46
2022-10-02T22:13:40.017Z,9.49
2022-10-02T22:16:26.604Z,9.51
2022-10-02T22:19:07.652Z,9.43
2022-10-02T22:21:54.200Z,9.39
2022-10-02T22:24:42.965Z,9.41
2022-10-02T22:27:21.224Z,9.25
2022-10-02T22:29:50.969Z,9.26
2022-10-02T22:33:07.605Z,9.27
2022-10-02T22:36:03.509Z,9.25
2022-10-02T22:38:35.882Z,9.41
2022-10-02T22:41:22.012Z,9.32
2022-10-02T22:44:05.467Z,9.25
2022-10-02T22:46:44.628Z,9.28
2022-10-02T22:49:30.216Z,9.29
2022-10-02T22:52:24.838Z,9.30
2022-10-02T22:55:03.174Z,9.30
2022-10-02T22:57:42.837Z,9.28
2022-10-02T23:00:21.325Z,9.26
2022-10-02T23:02:55.784Z,9.15
2022-10-02T23:05:51.877Z,9.12
2022-10-02T23:08:26.579Z,9.07
2022-10-02T23:10:57.455Z,9.13
2022-10-02T23:13:37.946Z,9.00
2022-10-02T23:16:35.537Z,8.97
2022-10-02T23:19:05.384Z,9.04
2022-10-02T23:21:45.873Z,9.04
2022-10-02T23:24:13.213Z,9.08
2022-10-02T23:27:03.171Z,8.95
2022-10-02T23:29:51.941Z,8.98
2022-10-02T23:32:24.719Z,8.97
2022-10-02T23:35:00.048Z,9.10
2022-10-02T23:37:35.109Z,9.18
2022-10-02T23:40:20.778Z,9.21
2022-10-02T23:42:52.385Z,9.07
2022-10-02T23:45:50.249Z,9.02
2022-10-02T23:48:18.209Z,9.07
2022-10-02T23:51:09.974Z,9.14
2022-10-02T23:53:42.898Z,9.16
2022-10-02T23:56:28.181Z,9.08
2022-10-02T23:59:12.899Z,9.05
